createdAt,value
2023-04-15T00:02:02.820Z,100.00
2023-04-15T00:04:31.733Z,100.00
2023-04-15T00:06:59.348Z,100.00
2023-04-15T00:09:28.179Z,100.00
2023-04-15T00:11:55.713Z,100.00
2023-04-15T00:14:23.206Z,100.00
2023-04-15T00:16:56.011Z,100.00
2023-04-15T00:19:24.067Z,100.00
2023-04-15T00:21:51.960Z,100.00
2023-04-15T00:24:19.504Z,100.00
2023-04-15T00:26:49.064Z,100.00
2023-04-15T00:29:16.585Z,100.00
2023-04-15T00:31:44.628Z,100.00
2023-04-15T00:34:12.981Z,100.00
2023-04-15T00:36:40.542Z,100.00
2023-04-15T00:39:08.224Z,100.00
2023-04-15T00:41:39.032Z,100.00
2023-04-15T00:44:08.469Z,100.00
2023-04-15T00:46:38.226Z,100.00
2023-04-15T00:49:07.046Z,100.00
2023-04-15T00:51:36.727Z,100.00
2023-04-15T00:54:04.505Z,100.00
2023-04-15T00:56:32.390Z,100.00
2023-04-15T00:59:00.953Z,100.00
2023-04-15T01:01:30.868Z,100.00
2023-04-15T01:03:59.098Z,100.00
2023-04-15T01:06:29.148Z,100.00
2023-04-15T01:08:57.248Z,100.00
2023-04-15T01:11:25.659Z,100.00
2023-04-15T01:13:53.800Z,100.00
2023-04-15T01:16:21.806Z,100.00
2023-04-15T01:18:52.127Z,100.00
2023-04-15T01:21:20.694Z,100.00
2023-04-15T01:24:02.858Z,100.00
2023-04-15T01:26:31.905Z,100.00
2023-04-15T01:28:59.630Z,100.00
2023-04-15T01:31:27.525Z,100.00
2023-04-15T01:33:55.619Z,100.00
2023-04-15T01:36:23.197Z,100.00
2023-04-15T01:38:54.264Z,100.00
2023-04-15T01:41:25.986Z,100.00
2023-04-15T01:43:55.073Z,100.00
2023-04-15T01:46:22.719Z,100.00
2023-04-15T01:48:50.860Z,100.00
2023-04-15T01:51:18.506Z,100.00
2023-04-15T01:53:46.394Z,100.00
2023-04-15T01:56:16.479Z,100.00
2023-04-15T01:58:44.705Z,100.00
2023-04-15T02:01:13.609Z,100.00
2023-04-15T02:03:41.253Z,100.00
2023-04-15T02:06:09.185Z,100.00
2023-04-15T02:08:36.714Z,100.00
2023-04-15T02:11:05.237Z,100.00
2023-04-15T02:13:33.193Z,100.00
2023-04-15T02:16:01.001Z,100.00
2023-04-15T02:18:29.922Z,100.00
2023-04-15T02:20:58.589Z,100.00
2023-04-15T02:23:26.503Z,100.00
2023-04-15T02:25:54.424Z,100.00
2023-04-15T02:28:22.119Z,100.00
2023-04-15T02:30:50.815Z,100.00
2023-04-15T02:33:18.442Z,100.00
2023-04-15T02:35:47.326Z,100.00
2023-04-15T02:38:16.737Z,100.00
2023-04-15T02:40:44.370Z,100.00
2023-04-15T02:43:12.142Z,100.00
2023-04-15T02:45:39.749Z,100.00
2023-04-15T02:48:07.388Z,100.00
2023-04-15T02:50:35.033Z,100.00
2023-04-15T02:53:04.848Z,100.00
2023-04-15T02:55:32.469Z,100.00
2023-04-15T02:58:01.050Z,100.00
2023-04-15T03:00:28.654Z,100.00
2023-04-15T03:03:00.074Z,100.00
2023-04-15T03:05:28.217Z,100.00
2023-04-15T03:07:55.882Z,100.00
2023-04-15T03:10:24.802Z,100.00
2023-04-15T03:12:52.509Z,100.00
2023-04-15T03:15:23.109Z,100.00
2023-04-15T03:17:53.188Z,100.00
2023-04-15T03:20:21.013Z,100.00
2023-04-15T03:22:49.574Z,100.00
2023-04-15T03:25:17.397Z,100.00
2023-04-15T03:27:46.585Z,100.00
2023-04-15T03:30:14.859Z,100.00
2023-04-15T03:32:42.559Z,100.00
2023-04-15T03:35:10.561Z,100.00
2023-04-15T03:37:38.252Z,100.00
2023-04-15T03:40:07.112Z,100.00
2023-04-15T03:42:34.757Z,100.00
2023-04-15T03:45:04.120Z,100.00
2023-04-15T03:47:32.031Z,100.00
2023-04-15T03:49:59.570Z,100.00
2023-04-15T03:52:27.132Z,100.00
2023-04-15T03:54:54.649Z,100.00
2023-04-15T03:57:22.174Z,100.00
2023-04-15T03:59:49.709Z,100.00
2023-04-15T04:02:18.664Z,100.00
2023-04-15T04:04:46.387Z,100.00
2023-04-15T04:07:16.708Z,100.00
2023-04-15T04:09:45.662Z,100.00
2023-04-15T04:12:14.413Z,100.00
2023-04-15T04:14:41.968Z,100.00
2023-04-15T04:17:09.922Z,100.00
2023-04-15T04:19:38.824Z,100.00
2023-04-15T04:22:06.406Z,100.00
2023-04-15T04:24:33.962Z,100.00
2023-04-15T04:27:02.082Z,100.00
2023-04-15T04:29:29.612Z,100.00
2023-04-15T04:31:57.230Z,100.00
2023-04-15T04:34:24.911Z,100.00
2023-04-15T04:36:53.764Z,100.00
2023-04-15T04:39:21.243Z,100.00
2023-04-15T04:41:48.778Z,100.00
2023-04-15T04:44:16.300Z,100.00
2023-04-15T04:46:43.839Z,100.00
2023-04-15T04:49:11.406Z,100.00
2023-04-15T04:51:39.471Z,100.00
2023-04-15T04:54:08.611Z,100.00
2023-04-15T04:56:36.293Z,100.00
2023-04-15T04:59:03.830Z,100.00
2023-04-15T05:01:31.426Z,100.00
2023-04-15T05:03:59.123Z,100.00
2023-04-15T05:06:27.620Z,100.00
2023-04-15T05:08:55.127Z,100.00
2023-04-15T05:11:24.043Z,100.00
2023-04-15T05:13:51.577Z,100.00
2023-04-15T05:16:19.878Z,100.00
2023-04-15T05:18:47.490Z,100.00
2023-04-15T05:21:15.069Z,100.00
2023-04-15T05:23:42.639Z,100.00
2023-04-15T05:26:10.224Z,100.00
2023-04-15T05:28:39.135Z,100.00
2023-04-15T05:31:07.285Z,100.00
2023-04-15T05:33:34.985Z,100.00
2023-04-15T05:36:02.569Z,100.00
2023-04-15T05:38:30.070Z,100.00
2023-04-15T05:40:57.682Z,100.00
2023-04-15T05:43:25.386Z,100.00
2023-04-15T05:45:54.341Z,100.00
2023-04-15T05:48:21.876Z,100.00
2023-04-15T05:50:49.449Z,100.00
2023-04-15T05:53:17.157Z,100.00
2023-04-15T05:55:44.759Z,100.00
2023-04-15T05:58:12.465Z,100.00
2023-04-15T06:00:40.376Z,100.00
2023-04-15T06:03:09.354Z,100.00
2023-04-15T06:05:36.993Z,100.00
2023-04-15T06:08:04.536Z,100.00
2023-04-15T06:10:36.282Z,100.00
2023-04-15T06:13:04.134Z,100.00
2023-04-15T06:15:31.823Z,100.00
2023-04-15T06:17:59.434Z,100.00
2023-04-15T06:20:28.621Z,100.00
2023-04-15T06:22:56.300Z,100.00
2023-04-15T06:25:24.038Z,100.00
2023-04-15T06:27:51.601Z,100.00
2023-04-15T06:30:19.253Z,100.00
2023-04-15T06:32:47.218Z,100.00
2023-04-15T06:35:15.323Z,100.00
2023-04-15T06:37:44.217Z,100.00
2023-04-15T06:40:12.384Z,100.00
2023-04-15T06:42:39.936Z,100.00
2023-04-15T06:45:08.728Z,100.00
2023-04-15T06:47:36.311Z,100.00
2023-04-15T06:50:03.985Z,100.00
2023-04-15T06:52:31.600Z,100.00
2023-04-15T06:55:00.880Z,100.00
2023-04-15T06:57:28.680Z,100.00
2023-04-15T06:59:56.225Z,100.00
2023-04-15T07:02:24.195Z,100.00
2023-04-15T07:04:51.821Z,100.00
2023-04-15T07:07:19.580Z,100.00
2023-04-15T07:09:47.211Z,100.00
2023-04-15T07:12:16.173Z,100.00
2023-04-15T07:14:43.707Z,100.00
2023-04-15T07:17:11.419Z,100.00
2023-04-15T07:19:39.037Z,100.00
2023-04-15T07:22:06.621Z,100.00
2023-04-15T07:24:34.125Z,100.00
2023-04-15T07:27:01.991Z,100.00
2023-04-15T07:29:31.404Z,100.00
2023-04-15T07:31:58.983Z,100.00
2023-04-15T07:34:26.528Z,100.00
2023-04-15T07:36:54.109Z,100.00
2023-04-15T07:39:22.244Z,100.00
2023-04-15T07:41:49.968Z,100.00
2023-04-15T07:44:17.495Z,100.00
2023-04-15T07:46:46.520Z,100.00
2023-04-15T07:49:14.376Z,100.00
2023-04-15T07:51:41.953Z,100.00
2023-04-15T07:54:09.964Z,100.00
2023-04-15T07:56:37.677Z,100.00
2023-04-15T07:59:06.466Z,100.00
2023-04-15T08:01:34.185Z,100.00
2023-04-15T08:04:03.917Z,100.00
2023-04-15T08:06:32.917Z,100.00
2023-04-15T08:09:00.828Z,100.00
2023-04-15T08:11:28.764Z,100.00
2023-04-15T08:13:56.455Z,100.00
2023-04-15T08:16:25.974Z,100.00
2023-04-15T08:18:54.974Z,100.00
2023-04-15T08:21:23.968Z,100.00
2023-04-15T08:23:53.431Z,100.00
2023-04-15T08:26:22.080Z,100.00
2023-04-15T08:28:50.419Z,100.00
2023-04-15T08:31:19.542Z,100.00
2023-04-15T08:33:47.390Z,100.00
2023-04-15T08:36:14.990Z,100.00
2023-04-15T08:38:45.523Z,100.00
2023-04-15T08:41:21.720Z,100.00
2023-04-15T08:43:53.959Z,100.00
2023-04-15T08:46:22.706Z,100.00
2023-04-15T08:48:50.938Z,100.00
2023-04-15T08:51:18.989Z,100.00
2023-04-15T08:53:48.048Z,100.00
2023-04-15T08:56:17.363Z,100.00
2023-04-15T08:58:45.617Z,100.00
2023-04-15T09:01:13.811Z,100.00
2023-04-15T09:03:41.746Z,100.00
2023-04-15T09:06:09.750Z,100.00
2023-04-15T09:08:37.345Z,100.00
2023-04-15T09:11:06.466Z,100.00
2023-04-15T09:13:34.310Z,100.00
2023-04-15T09:16:03.921Z,100.00
2023-04-15T09:18:33.305Z,100.00
2023-04-15T09:21:06.562Z,100.00
2023-04-15T09:23:34.350Z,100.00
2023-04-15T09:26:02.299Z,100.00
2023-04-15T09:28:31.522Z,100.00
2023-04-15T09:30:59.463Z,100.00
2023-04-15T09:33:28.038Z,100.00
2023-04-15T09:36:01.811Z,100.00
2023-04-15T09:38:29.464Z,100.00
2023-04-15T09:40:57.142Z,100.00
2023-04-15T09:43:38.019Z,100.00
2023-04-15T09:46:06.958Z,100.00
2023-04-15T09:48:34.594Z,100.00
2023-04-15T09:51:02.945Z,100.00
2023-04-15T09:53:31.915Z,100.00
2023-04-15T09:56:02.275Z,100.00
2023-04-15T09:58:31.331Z,100.00
2023-04-15T10:01:00.531Z,100.00
2023-04-15T10:03:31.139Z,100.00
2023-04-15T10:06:01.034Z,100.00
2023-04-15T10:08:30.059Z,100.00
2023-04-15T10:10:57.997Z,100.00
2023-04-15T10:13:26.903Z,100.00
2023-04-15T10:15:59.116Z,100.00
2023-04-15T10:18:27.881Z,100.00
2023-04-15T10:20:58.039Z,100.00
2023-04-15T10:23:25.742Z,100.00
2023-04-15T10:25:54.980Z,100.00
2023-04-15T10:28:23.515Z,100.00
2023-04-15T10:30:52.039Z,100.00
2023-04-15T10:33:22.511Z,99.93
2023-04-15T10:35:51.917Z,97.58
2023-04-15T10:38:39.867Z,96.24
2023-04-15T10:41:20.230Z,97.16
2023-04-15T10:43:53.385Z,96.57
2023-04-15T10:46:24.004Z,96.84
2023-04-15T10:48:52.982Z,97.80
2023-04-15T10:51:29.407Z,93.33
2023-04-15T10:54:01.741Z,95.97
2023-04-15T10:56:31.150Z,94.96
2023-04-15T10:59:00.940Z,93.60
2023-04-15T11:01:54.130Z,92.99
2023-04-15T11:04:57.433Z,92.41
2023-04-15T11:07:35.504Z,90.83
2023-04-15T11:10:04.921Z,92.07
2023-04-15T11:12:36.645Z,88.60
2023-04-15T11:15:30.159Z,89.56
2023-04-15T11:17:58.085Z,86.25
2023-04-15T11:20:26.069Z,87.32
2023-04-15T11:23:14.141Z,88.36
2023-04-15T11:25:44.726Z,88.92
2023-04-15T11:28:13.169Z,85.57
2023-04-15T11:30:42.977Z,86.10
2023-04-15T11:33:13.793Z,85.15
2023-04-15T11:35:42.635Z,84.88
2023-04-15T11:38:12.850Z,86.04
2023-04-15T11:40:41.753Z,84.44
2023-04-15T11:43:12.433Z,83.95
2023-04-15T11:45:50.096Z,84.03
2023-04-15T11:48:18.380Z,85.30
2023-04-15T11:50:46.405Z,86.06
2023-04-15T11:53:15.108Z,84.71
2023-04-15T11:55:44.981Z,86.03
2023-04-15T11:58:16.449Z,82.76
2023-04-15T12:00:48.786Z,83.00
2023-04-15T12:03:20.098Z,83.83
2023-04-15T12:06:08.244Z,83.72
2023-04-15T12:08:59.299Z,85.18
2023-04-15T12:11:32.796Z,83.35
2023-04-15T12:14:07.783Z,85.15
2023-04-15T12:16:48.990Z,84.18
2023-04-15T12:19:19.792Z,84.03
2023-04-15T12:21:49.073Z,84.33
2023-04-15T12:24:16.632Z,85.62
2023-04-15T12:26:46.164Z,83.90
2023-04-15T12:29:17.342Z,82.30
2023-04-15T12:31:50.479Z,83.66
2023-04-15T12:34:18.587Z,82.70
2023-04-15T12:36:46.123Z,82.77
2023-04-15T12:39:14.095Z,82.15
2023-04-15T12:41:41.809Z,82.21
2023-04-15T12:44:09.480Z,83.68
2023-04-15T12:46:38.684Z,83.88
2023-04-15T12:49:06.264Z,83.69
2023-04-15T12:51:33.782Z,82.54
2023-04-15T12:54:01.495Z,83.46
2023-04-15T12:56:29.249Z,82.00
2023-04-15T12:58:57.469Z,81.42
2023-04-15T13:01:25.042Z,82.32
2023-04-15T13:03:54.150Z,81.68
2023-04-15T13:06:21.797Z,80.88
2023-04-15T13:08:57.933Z,81.21
2023-04-15T13:11:26.261Z,79.89
2023-04-15T13:13:53.854Z,81.25
2023-04-15T13:16:21.861Z,80.05
2023-04-15T13:18:49.501Z,77.34
2023-04-15T13:21:19.384Z,78.25
2023-04-15T13:23:47.114Z,78.19
2023-04-15T13:26:14.656Z,77.70
2023-04-15T13:28:42.171Z,77.54
2023-04-15T13:31:09.900Z,77.91
2023-04-15T13:33:37.556Z,75.95
2023-04-15T13:36:05.278Z,75.00
2023-04-15T13:38:34.160Z,75.04
2023-04-15T13:41:01.732Z,75.10
2023-04-15T13:43:29.553Z,74.94
2023-04-15T13:45:57.117Z,74.83
2023-04-15T13:48:24.841Z,74.44
2023-04-15T13:50:52.415Z,75.66
2023-04-15T13:53:19.911Z,77.97
2023-04-15T13:55:48.768Z,76.99
2023-04-15T13:58:17.069Z,76.91
2023-04-15T14:00:44.622Z,77.08
2023-04-15T14:03:12.384Z,78.22
2023-04-15T14:05:40.210Z,78.17
2023-04-15T14:08:07.816Z,78.87
2023-04-15T14:10:36.157Z,77.82
2023-04-15T14:13:05.162Z,78.75
2023-04-15T14:15:32.753Z,79.36
2023-04-15T14:18:00.394Z,78.28
2023-04-15T14:20:27.932Z,77.86
2023-04-15T14:22:55.512Z,78.06
2023-04-15T14:25:32.738Z,78.28
2023-04-15T14:28:01.471Z,78.04
2023-04-15T14:30:30.726Z,77.41
2023-04-15T14:32:58.381Z,76.72
2023-04-15T14:35:26.817Z,76.89
2023-04-15T14:37:54.547Z,77.84
2023-04-15T14:40:22.303Z,78.41
2023-04-15T14:42:49.970Z,77.34
2023-04-15T14:45:17.727Z,77.50
2023-04-15T14:47:46.767Z,78.79
2023-04-15T14:50:14.934Z,76.45
2023-04-15T14:52:42.520Z,76.91
2023-04-15T14:55:11.577Z,76.35
2023-04-15T14:57:39.717Z,77.54
2023-04-15T15:00:08.649Z,77.02
2023-04-15T15:02:39.652Z,77.10
2023-04-15T15:05:11.470Z,77.44
2023-04-15T15:07:40.658Z,77.21
2023-04-15T15:10:09.290Z,76.28
2023-04-15T15:12:36.894Z,76.30
2023-04-15T15:15:15.779Z,76.70
2023-04-15T15:17:52.874Z,78.18
2023-04-15T15:20:21.890Z,79.42
2023-04-15T15:22:49.625Z,78.42
2023-04-15T15:25:17.317Z,78.22
2023-04-15T15:27:45.140Z,78.15
2023-04-15T15:30:13.791Z,77.99
2023-04-15T15:32:42.585Z,77.46
2023-04-15T15:35:11.288Z,80.26
2023-04-15T15:37:40.216Z,79.84
2023-04-15T15:40:09.174Z,80.75
2023-04-15T15:42:36.786Z,80.28
2023-04-15T15:45:04.760Z,80.40
2023-04-15T15:47:32.342Z,79.26
2023-04-15T15:50:00.957Z,80.81
2023-04-15T15:52:28.810Z,80.45
2023-04-15T15:54:57.657Z,81.46
2023-04-15T15:57:25.245Z,81.12
2023-04-15T16:00:04.748Z,82.24
2023-04-15T16:03:04.303Z,82.81
2023-04-15T16:05:25.769Z,83.04
2023-04-15T16:07:53.449Z,83.41
2023-04-15T16:10:22.415Z,84.45
2023-04-15T16:12:50.766Z,84.87
2023-04-15T16:15:18.377Z,85.79
2023-04-15T16:17:45.959Z,85.08
2023-04-15T16:20:13.633Z,85.98
2023-04-15T16:22:41.271Z,86.40
2023-04-15T16:25:09.532Z,87.08
2023-04-15T16:30:11.061Z,86.07
2023-04-15T16:32:38.894Z,85.09
2023-04-15T16:35:07.452Z,85.43
2023-04-15T16:37:36.066Z,87.25
2023-04-15T16:40:04.157Z,86.83
2023-04-15T16:42:32.129Z,87.27
2023-04-15T16:45:01.174Z,87.54
2023-04-15T16:47:28.956Z,87.57
2023-04-15T16:49:56.503Z,87.09
2023-04-15T16:52:24.139Z,87.33
2023-04-15T16:54:51.907Z,87.66
2023-04-15T16:57:19.613Z,88.56
2023-04-15T16:59:47.208Z,88.73
2023-04-15T17:02:16.305Z,89.20
2023-04-15T17:04:44.122Z,89.45
2023-04-15T17:07:11.834Z,89.85
2023-04-15T17:09:40.106Z,88.86
2023-04-15T17:12:07.991Z,89.22
2023-04-15T17:14:35.558Z,89.01
2023-04-15T17:17:03.137Z,89.30
2023-04-15T17:19:31.959Z,89.65
2023-04-15T17:22:00.990Z,89.97
2023-04-15T17:24:28.827Z,89.60
2023-04-15T17:26:56.828Z,89.44
2023-04-15T17:29:25.010Z,90.15
2023-04-15T17:31:52.586Z,91.19
2023-04-15T17:34:20.413Z,91.00
2023-04-15T17:36:51.214Z,92.18
2023-04-15T17:39:18.722Z,91.78
2023-04-15T17:41:46.364Z,91.68
2023-04-15T17:44:13.906Z,92.39
2023-04-15T17:46:41.471Z,92.85
2023-04-15T17:49:09.132Z,92.53
2023-04-15T17:51:36.658Z,93.06
2023-04-15T17:54:11.478Z,92.52
2023-04-15T17:56:39.086Z,93.51
2023-04-15T17:59:08.735Z,93.85
2023-04-15T18:01:36.395Z,93.30
2023-04-15T18:04:04.265Z,94.16
2023-04-15T18:06:32.285Z,94.38
2023-04-15T18:08:59.800Z,95.11
2023-04-15T18:11:28.672Z,94.45
2023-04-15T18:13:56.220Z,94.92
2023-04-15T18:16:23.881Z,94.18
2023-04-15T18:18:52.126Z,94.86
2023-04-15T18:21:19.652Z,94.72
2023-04-15T18:23:47.155Z,94.92
2023-04-15T18:26:14.713Z,94.84
2023-04-15T18:28:43.579Z,95.32
2023-04-15T18:31:11.292Z,95.81
2023-04-15T18:33:40.284Z,95.68
2023-04-15T18:36:07.851Z,95.74
2023-04-15T18:38:35.474Z,95.92
2023-04-15T18:41:03.006Z,96.24
2023-04-15T18:43:30.556Z,97.16
2023-04-15T18:45:59.640Z,96.65
2023-04-15T18:48:27.326Z,96.61
2023-04-15T18:50:54.909Z,96.00
2023-04-15T18:53:22.525Z,95.82
2023-04-15T18:55:50.093Z,96.17
2023-04-15T18:58:17.637Z,95.17
2023-04-15T19:00:45.276Z,96.32
2023-04-15T19:03:14.629Z,95.76
2023-04-15T19:05:42.324Z,95.90
2023-04-15T19:08:09.895Z,95.94
2023-04-15T19:10:37.588Z,96.14
2023-04-15T19:13:05.650Z,96.16
2023-04-15T19:15:33.220Z,97.22
2023-04-15T19:18:00.976Z,97.01
2023-04-15T19:20:29.908Z,97.03
2023-04-15T19:22:57.586Z,97.10
2023-04-15T19:25:25.273Z,97.72
2023-04-15T19:27:52.828Z,98.28
2023-04-15T19:30:21.203Z,97.74
2023-04-15T19:32:48.833Z,97.25
2023-04-15T19:35:16.628Z,97.18
2023-04-15T19:37:45.506Z,98.19
2023-04-15T19:40:13.624Z,98.48
2023-04-15T19:42:41.305Z,98.29
2023-04-15T19:45:09.594Z,98.03
2023-04-15T19:47:37.553Z,98.65
2023-04-15T19:50:07.201Z,97.71
2023-04-15T19:52:34.976Z,97.50
2023-04-15T19:55:04.290Z,97.82
2023-04-15T19:57:31.846Z,98.05
2023-04-15T19:59:59.346Z,98.01
2023-04-15T20:02:27.039Z,97.18
2023-04-15T20:04:54.689Z,98.46
2023-04-15T20:07:22.196Z,97.95
2023-04-15T20:09:51.558Z,98.71
2023-04-15T20:12:49.773Z,98.18
2023-04-15T20:15:09.475Z,98.79
2023-04-15T20:17:37.582Z,99.16
2023-04-15T20:20:06.316Z,98.71
2023-04-15T20:22:34.443Z,98.92
2023-04-15T20:25:03.116Z,99.15
2023-04-15T20:27:31.965Z,98.98
2023-04-15T20:29:59.518Z,99.14
2023-04-15T20:32:28.274Z,99.84
2023-04-15T20:34:56.280Z,100.00
2023-04-15T20:37:23.774Z,100.00
2023-04-15T20:39:51.463Z,99.67
2023-04-15T20:42:20.757Z,99.13
2023-04-15T20:44:49.669Z,100.00
2023-04-15T20:47:17.331Z,100.00
2023-04-15T20:49:45.634Z,100.00
2023-04-15T20:52:13.155Z,100.00
2023-04-15T20:54:40.724Z,100.00
2023-04-15T20:57:08.315Z,100.00
2023-04-15T20:59:36.006Z,100.00
2023-04-15T21:02:04.996Z,100.00
2023-04-15T21:04:32.691Z,100.00
2023-04-15T21:07:00.277Z,100.00
2023-04-15T21:09:27.838Z,100.00
2023-04-15T21:12:00.552Z,100.00
2023-04-15T21:14:29.437Z,100.00
2023-04-15T21:16:57.912Z,100.00
2023-04-15T21:19:26.897Z,100.00
2023-04-15T21:21:54.405Z,100.00
2023-04-15T21:24:21.947Z,100.00
2023-04-15T21:26:49.434Z,100.00
2023-04-15T21:29:17.086Z,100.00
2023-04-15T21:31:44.901Z,100.00
2023-04-15T21:34:12.514Z,100.00
2023-04-15T21:36:41.388Z,100.00
2023-04-15T21:39:08.979Z,100.00
2023-04-15T21:41:37.498Z,100.00
2023-04-15T21:44:05.248Z,100.00
2023-04-15T21:46:35.493Z,100.00
2023-04-15T21:49:04.416Z,100.00
2023-04-15T21:51:32.547Z,100.00
2023-04-15T21:54:01.551Z,100.00
2023-04-15T21:56:29.400Z,100.00
2023-04-15T21:58:58.539Z,100.00
2023-04-15T22:01:26.509Z,100.00
2023-04-15T22:03:54.513Z,100.00
2023-04-15T22:06:22.518Z,100.00
2023-04-15T22:08:57.095Z,100.00
2023-04-15T22:11:30.828Z,100.00
2023-04-15T22:13:58.681Z,100.00
2023-04-15T22:16:26.733Z,100.00
2023-04-15T22:18:54.832Z,100.00
2023-04-15T22:21:22.394Z,100.00
2023-04-15T22:23:50.373Z,100.00
2023-04-15T22:26:17.913Z,100.00
2023-04-15T22:28:46.758Z,100.00
2023-04-15T22:31:14.824Z,100.00
2023-04-15T22:33:42.448Z,100.00
2023-04-15T22:36:09.974Z,100.00
2023-04-15T22:38:37.485Z,100.00
2023-04-15T22:41:05.084Z,100.00
2023-04-15T22:43:32.621Z,100.00
2023-04-15T22:46:02.103Z,100.00
2023-04-15T22:48:29.639Z,100.00
2023-04-15T22:50:57.224Z,100.00
2023-04-15T22:53:24.731Z,100.00
2023-04-15T22:55:53.786Z,100.00
2023-04-15T22:58:21.316Z,100.00
2023-04-15T23:00:49.428Z,100.00
2023-04-15T23:03:18.474Z,100.00
2023-04-15T23:05:46.595Z,100.00
2023-04-15T23:08:14.136Z,100.00
2023-04-15T23:10:41.973Z,100.00
2023-04-15T23:13:09.531Z,100.00
2023-04-15T23:15:37.019Z,100.00
2023-04-15T23:18:04.711Z,100.00
2023-04-15T23:20:33.792Z,100.00
2023-04-15T23:23:01.414Z,100.00
2023-04-15T23:25:29.078Z,100.00
2023-04-15T23:27:56.639Z,100.00
2023-04-15T23:30:24.221Z,100.00
2023-04-15T23:32:51.777Z,100.00
2023-04-15T23:35:19.484Z,100.00
2023-04-15T23:37:48.368Z,100.00
2023-04-15T23:40:16.250Z,100.00
2023-04-15T23:42:44.214Z,100.00
2023-04-15T23:45:12.563Z,100.00
2023-04-15T23:47:40.505Z,100.00
2023-04-15T23:50:09.390Z,100.00
2023-04-15T23:52:37.285Z,100.00
2023-04-15T23:55:07.117Z,100.00
2023-04-15T23:57:34.714Z,100.00
